Andrews, Texas
Current Conditions -  °F | °C
As of 11:35 AM on Sunday 21 Dec 2014 (Local Time) from KE11 Reporting Station
Clear Clear  
Wind Chill: 57°   Ceiling: Unl
Heat Index: 57°   Visibility: 10mi
Dew Point: 31°   Wind: 15mph
Humidity: 38%   Direction: 250°WSW
Pressure: 29.92"   Gusts: 18mph
Location:  32.32°N, 102.54°W
Report Text: KE11 211735Z AUTO 25013G16KT 10SM CLR 14/00 A2992 RMK AO2 T01371003
Loading
Personal Weather Stations






























Interactive Weather Map New forecast layout! Learn more

10-Day Weather Forecast

Advertisements
Track Severe Weather on mobile